Helsinki, Suomi

18. helmikuuta 2018 klo 22:09 (EET) (GMT +0200)
Vantaa | | Change Station

Kork 184 ft 60.32 °N, 24.97 °E | Updated 19 minutes ago

Clear
Selkeää
10 °F
Tuntuu kuin 2 °F
N
5
Tuuli Suunnaltaan vaihteleva Tuuli ilmansuunnasta Pohjoisen ja luoteen välinen

Tänään
Korkea -- | Matala -- °F
--% Sateen mahd.
Eilen
Korkea -- | Matala -- °F
Precip. -- tuumaa
Ilmanpaine 30.21 tuumaa
Näkyvyys -9999.0 mailia
Pilviä
Tuulen hyytävyys 2 °F
Kastepiste 9 °F
Ilmankosteus 92%
Sademäärä 0.00 tuumaa
Lumensyvyys Ei saatavilla
7:51 AM 5:18 PM
Kasvava sirppi, 9% visible
METAR EFHK 181950Z 33004KT CAVOK M12/M13 Q1023 NOSIG
Ilmanpaine 30.21 tuumaa
Näkyvyys -9999.0 mailia
Pilviä
Tuulen hyytävyys 2 °F
Kastepiste 9 °F
Ilmankosteus 92%
Sademäärä 0.00 tuumaa
Lumensyvyys Ei saatavilla
7:51 AM 5:18 PM
Kasvava sirppi, 9% visible
METAR EFHK 181950Z 33004KT CAVOK M12/M13 Q1023 NOSIG

Get Severe Weather Alerts

Thanks for signing up!

Be on the lookout for a verification email in your inbox.

You'll start receiving the daily forecast at 6 AM.

×

10-Day Weather Forecast

×

Almanac

Tähtitiede

Feb. 18, 2018 Nousuaika Laskuaika
Valoisa aika
Porvarillinen hämärä
Nauttinen hämärä
Astronominen hämärä
Kuu
Näkyvän valon pituus
Päivän pituus
Tomorrow will be .
, % of the Moon is Illuminated

Tämän päivän ennätykset

Country Highs Country Lows

Community

WunderPhotos

Category 6

Welcome to Category 6. This is the collective home for Weather Underground's featured writeups by Dr. Jeff Masters (right), Bob Henson (left), Chris Burt, and other regular contributors.

Nearby

Ilmanlaatu

  Ilmanlaatu AQ Index Pollutant
Not available.

Lumensyvyys

Station Depth Korkeus

Maanjäristysaktiivisuus

Paikkakunta Distance Mag. Time & Date
Minimum magnitude displayed is 2.5.

Coastal Water Temperatures

Paikka Lämpötila

Stations

Lähimmät sääasemat

Aseman sijainti Lämpötila Tuulen hyytävyys Kastepiste Ilmankosteus Tuuli Precip. Kork Päivitetty Tyyppi